sensor_id;sensor_type;location;lat;lon;timestamp;P1;durP1;ratioP1;P2;durP2;ratioP2
57535;SDS011;43361;49.790;8.960;2023-06-24T00:07:26;3.30;;;2.53;;
57535;SDS011;43361;49.790;8.960;2023-06-24T00:17:28;2.65;;;1.90;;
57535;SDS011;43361;49.790;8.960;2023-06-24T00:27:29;3.05;;;2.25;;
57535;SDS011;43361;49.790;8.960;2023-06-24T00:37:30;3.15;;;2.10;;
57535;SDS011;43361;49.790;8.960;2023-06-24T00:47:31;2.60;;;2.10;;
57535;SDS011;43361;49.790;8.960;2023-06-24T00:57:33;3.00;;;2.45;;
57535;SDS011;43361;49.790;8.960;2023-06-24T01:07:33;2.60;;;1.95;;
57535;SDS011;43361;49.790;8.960;2023-06-24T01:17:37;2.50;;;2.00;;
57535;SDS011;43361;49.790;8.960;2023-06-24T01:27:45;2.83;;;2.10;;
57535;SDS011;43361;49.790;8.960;2023-06-24T01:37:51;2.27;;;1.77;;
57535;SDS011;43361;49.790;8.960;2023-06-24T01:47:53;2.25;;;2.05;;
57535;SDS011;43361;49.790;8.960;2023-06-24T01:57:56;2.83;;;2.20;;
57535;SDS011;43361;49.790;8.960;2023-06-24T02:07:57;2.22;;;1.98;;
57535;SDS011;43361;49.790;8.960;2023-06-24T02:17:59;2.47;;;1.90;;
57535;SDS011;43361;49.790;8.960;2023-06-24T02:28:02;2.70;;;2.08;;
57535;SDS011;43361;49.790;8.960;2023-06-24T02:38:04;2.75;;;2.10;;
57535;SDS011;43361;49.790;8.960;2023-06-24T02:48:05;2.00;;;1.80;;
57535;SDS011;43361;49.790;8.960;2023-06-24T02:58:08;2.33;;;2.00;;
57535;SDS011;43361;49.790;8.960;2023-06-24T03:08:08;2.42;;;1.60;;
57535;SDS011;43361;49.790;8.960;2023-06-24T03:18:10;2.08;;;1.83;;
57535;SDS011;43361;49.790;8.960;2023-06-24T03:28:11;2.10;;;1.90;;
57535;SDS011;43361;49.790;8.960;2023-06-24T03:38:13;2.28;;;1.77;;
57535;SDS011;43361;49.790;8.960;2023-06-24T03:48:13;2.40;;;2.05;;
57535;SDS011;43361;49.790;8.960;2023-06-24T03:58:15;2.30;;;1.73;;
57535;SDS011;43361;49.790;8.960;2023-06-24T04:08:16;2.10;;;1.67;;
57535;SDS011;43361;49.790;8.960;2023-06-24T04:18:19;1.88;;;1.67;;
57535;SDS011;43361;49.790;8.960;2023-06-24T04:28:19;2.05;;;1.75;;
57535;SDS011;43361;49.790;8.960;2023-06-24T04:38:21;3.20;;;2.10;;
57535;SDS011;43361;49.790;8.960;2023-06-24T04:48:23;51.08;;;7.72;;
57535;SDS011;43361;49.790;8.960;2023-06-24T04:58:25;18.33;;;3.88;;
57535;SDS011;43361;49.790;8.960;2023-06-24T05:08:25;10.13;;;3.15;;
57535;SDS011;43361;49.790;8.960;2023-06-24T05:18:27;9.85;;;3.30;;
57535;SDS011;43361;49.790;8.960;2023-06-24T05:28:27;9.05;;;2.67;;
57535;SDS011;43361;49.790;8.960;2023-06-24T05:38:29;7.80;;;2.50;;
57535;SDS011;43361;49.790;8.960;2023-06-24T05:48:29;6.15;;;2.75;;
57535;SDS011;43361;49.790;8.960;2023-06-24T05:58:31;9.52;;;3.10;;
57535;SDS011;43361;49.790;8.960;2023-06-24T06:08:31;9.02;;;3.47;;
57535;SDS011;43361;49.790;8.960;2023-06-24T06:18:33;17.33;;;3.95;;
57535;SDS011;43361;49.790;8.960;2023-06-24T06:28:34;14.10;;;4.00;;
57535;SDS011;43361;49.790;8.960;2023-06-24T06:38:35;9.15;;;3.78;;
57535;SDS011;43361;49.790;8.960;2023-06-24T06:48:36;17.55;;;3.75;;
57535;SDS011;43361;49.790;8.960;2023-06-24T06:58:38;13.30;;;3.90;;
57535;SDS011;43361;49.790;8.960;2023-06-24T07:08:38;11.32;;;4.18;;
57535;SDS011;43361;49.790;8.960;2023-06-24T07:18:42;7.95;;;3.55;;
57535;SDS011;43361;49.790;8.960;2023-06-24T07:28:42;13.73;;;4.38;;
57535;SDS011;43361;49.790;8.960;2023-06-24T07:38:44;7.57;;;3.92;;
57535;SDS011;43361;49.790;8.960;2023-06-24T07:48:45;13.25;;;5.15;;
57535;SDS011;43361;49.790;8.960;2023-06-24T08:08:50;7.50;;;4.18;;
57535;SDS011;43361;49.790;8.960;2023-06-24T08:18:51;10.43;;;4.00;;
57535;SDS011;43361;49.790;8.960;2023-06-24T08:28:53;5.85;;;3.97;;
57535;SDS011;43361;49.790;8.960;2023-06-24T08:38:53;6.47;;;3.83;;
57535;SDS011;43361;49.790;8.960;2023-06-24T08:48:57;4.18;;;3.13;;
57535;SDS011;43361;49.790;8.960;2023-06-24T08:58:58;5.18;;;3.78;;
57535;SDS011;43361;49.790;8.960;2023-06-24T09:09:00;7.07;;;3.40;;
57535;SDS011;43361;49.790;8.960;2023-06-24T09:19:00;8.93;;;3.63;;
57535;SDS011;43361;49.790;8.960;2023-06-24T09:29:02;7.65;;;3.78;;
57535;SDS011;43361;49.790;8.960;2023-06-24T09:39:05;15.32;;;4.18;;
57535;SDS011;43361;49.790;8.960;2023-06-24T09:49:07;21.20;;;5.10;;
57535;SDS011;43361;49.790;8.960;2023-06-24T09:59:07;20.70;;;4.80;;
57535;SDS011;43361;49.790;8.960;2023-06-24T10:09:09;17.25;;;4.20;;
57535;SDS011;43361;49.790;8.960;2023-06-24T10:19:10;14.13;;;4.45;;
57535;SDS011;43361;49.790;8.960;2023-06-24T10:29:18;14.60;;;4.43;;
57535;SDS011;43361;49.790;8.960;2023-06-24T10:39:39;9.38;;;4.38;;
57535;SDS011;43361;49.790;8.960;2023-06-24T10:49:42;11.85;;;4.55;;
57535;SDS011;43361;49.790;8.960;2023-06-24T10:59:42;11.57;;;4.43;;
57535;SDS011;43361;49.790;8.960;2023-06-24T11:09:49;12.20;;;4.45;;
57535;SDS011;43361;49.790;8.960;2023-06-24T11:19:49;8.20;;;3.90;;
57535;SDS011;43361;49.790;8.960;2023-06-24T11:29:52;12.38;;;4.70;;
57535;SDS011;43361;49.790;8.960;2023-06-24T11:40:00;10.35;;;4.80;;
57535;SDS011;43361;49.790;8.960;2023-06-24T11:50:03;8.50;;;4.10;;
57535;SDS011;43361;49.790;8.960;2023-06-24T12:00:06;8.40;;;4.35;;
57535;SDS011;43361;49.790;8.960;2023-06-24T12:10:13;8.13;;;3.90;;
57535;SDS011;43361;49.790;8.960;2023-06-24T12:20:13;10.85;;;4.45;;
57535;SDS011;43361;49.790;8.960;2023-06-24T12:30:15;8.15;;;4.00;;
57535;SDS011;43361;49.790;8.960;2023-06-24T12:40:16;6.47;;;4.07;;
57535;SDS011;43361;49.790;8.960;2023-06-24T12:50:18;9.25;;;3.88;;
57535;SDS011;43361;49.790;8.960;2023-06-24T13:00:19;8.82;;;4.15;;
57535;SDS011;43361;49.790;8.960;2023-06-24T13:10:21;11.20;;;4.65;;
57535;SDS011;43361;49.790;8.960;2023-06-24T13:20:22;12.65;;;4.25;;
57535;SDS011;43361;49.790;8.960;2023-06-24T13:30:23;14.65;;;3.65;;
57535;SDS011;43361;49.790;8.960;2023-06-24T13:40:24;13.43;;;4.18;;
57535;SDS011;43361;49.790;8.960;2023-06-24T13:50:26;8.85;;;3.70;;
57535;SDS011;43361;49.790;8.960;2023-06-24T14:00:26;12.48;;;4.07;;
57535;SDS011;43361;49.790;8.960;2023-06-24T14:10:28;11.07;;;3.78;;
57535;SDS011;43361;49.790;8.960;2023-06-24T14:30:32;16.40;;;4.50;;
57535;SDS011;43361;49.790;8.960;2023-06-24T14:40:33;10.70;;;4.10;;
57535;SDS011;43361;49.790;8.960;2023-06-24T14:50:34;5.15;;;3.45;;
57535;SDS011;43361;49.790;8.960;2023-06-24T15:00:35;10.02;;;4.40;;
57535;SDS011;43361;49.790;8.960;2023-06-24T15:10:36;15.02;;;4.63;;
57535;SDS011;43361;49.790;8.960;2023-06-24T15:20:37;7.95;;;4.05;;
57535;SDS011;43361;49.790;8.960;2023-06-24T15:30:39;6.88;;;3.75;;
57535;SDS011;43361;49.790;8.960;2023-06-24T15:40:39;7.00;;;3.80;;
57535;SDS011;43361;49.790;8.960;2023-06-24T15:50:41;5.25;;;3.30;;
57535;SDS011;43361;49.790;8.960;2023-06-24T16:00:42;10.65;;;3.78;;
57535;SDS011;43361;49.790;8.960;2023-06-24T16:10:44;5.57;;;3.20;;
57535;SDS011;43361;49.790;8.960;2023-06-24T16:20:45;20.80;;;4.47;;
57535;SDS011;43361;49.790;8.960;2023-06-24T16:30:47;15.73;;;4.55;;
57535;SDS011;43361;49.790;8.960;2023-06-24T16:40:47;18.10;;;4.72;;
57535;SDS011;43361;49.790;8.960;2023-06-24T16:50:49;10.88;;;3.92;;
57535;SDS011;43361;49.790;8.960;2023-06-24T17:00:49;8.45;;;4.05;;
57535;SDS011;43361;49.790;8.960;2023-06-24T17:10:51;12.13;;;4.22;;
57535;SDS011;43361;49.790;8.960;2023-06-24T17:20:51;10.52;;;3.90;;
57535;SDS011;43361;49.790;8.960;2023-06-24T17:30:53;13.30;;;4.05;;
57535;SDS011;43361;49.790;8.960;2023-06-24T17:40:54;11.10;;;4.53;;
57535;SDS011;43361;49.790;8.960;2023-06-24T17:50:55;8.38;;;3.72;;
57535;SDS011;43361;49.790;8.960;2023-06-24T18:00:56;9.05;;;3.70;;
57535;SDS011;43361;49.790;8.960;2023-06-24T18:10:58;6.50;;;3.63;;
57535;SDS011;43361;49.790;8.960;2023-06-24T18:20:58;7.07;;;3.33;;
57535;SDS011;43361;49.790;8.960;2023-06-24T18:31:00;6.93;;;3.85;;
57535;SDS011;43361;49.790;8.960;2023-06-24T18:41:00;6.65;;;3.50;;
57535;SDS011;43361;49.790;8.960;2023-06-24T18:51:02;5.10;;;2.90;;
57535;SDS011;43361;49.790;8.960;2023-06-24T19:01:02;7.55;;;3.28;;
57535;SDS011;43361;49.790;8.960;2023-06-24T19:11:04;7.25;;;3.47;;
57535;SDS011;43361;49.790;8.960;2023-06-24T19:21:04;4.70;;;3.30;;
57535;SDS011;43361;49.790;8.960;2023-06-24T19:31:06;6.25;;;3.55;;
57535;SDS011;43361;49.790;8.960;2023-06-24T19:41:07;8.20;;;3.78;;
57535;SDS011;43361;49.790;8.960;2023-06-24T19:51:08;6.28;;;3.38;;
57535;SDS011;43361;49.790;8.960;2023-06-24T20:01:09;4.70;;;3.13;;
57535;SDS011;43361;49.790;8.960;2023-06-24T20:11:11;5.07;;;3.45;;
57535;SDS011;43361;49.790;8.960;2023-06-24T20:21:11;4.70;;;3.45;;
57535;SDS011;43361;49.790;8.960;2023-06-24T20:31:15;5.00;;;3.42;;
57535;SDS011;43361;49.790;8.960;2023-06-24T20:41:19;4.70;;;2.83;;
57535;SDS011;43361;49.790;8.960;2023-06-24T20:51:21;4.72;;;3.28;;
57535;SDS011;43361;49.790;8.960;2023-06-24T21:01:22;7.03;;;3.50;;
57535;SDS011;43361;49.790;8.960;2023-06-24T21:11:24;4.70;;;3.17;;
57535;SDS011;43361;49.790;8.960;2023-06-24T21:21:24;4.30;;;3.15;;
57535;SDS011;43361;49.790;8.960;2023-06-24T21:31:26;4.20;;;3.20;;
57535;SDS011;43361;49.790;8.960;2023-06-24T21:41:26;3.10;;;2.78;;
57535;SDS011;43361;49.790;8.960;2023-06-24T21:51:29;3.97;;;3.30;;
57535;SDS011;43361;49.790;8.960;2023-06-24T22:01:29;4.22;;;2.80;;
57535;SDS011;43361;49.790;8.960;2023-06-24T22:11:32;3.17;;;2.78;;
57535;SDS011;43361;49.790;8.960;2023-06-24T22:21:33;3.25;;;2.58;;
57535;SDS011;43361;49.790;8.960;2023-06-24T22:31:35;3.50;;;2.80;;
57535;SDS011;43361;49.790;8.960;2023-06-24T22:41:35;4.05;;;2.80;;
57535;SDS011;43361;49.790;8.960;2023-06-24T22:51:37;3.42;;;2.95;;
57535;SDS011;43361;49.790;8.960;2023-06-24T23:01:37;3.78;;;2.92;;
57535;SDS011;43361;49.790;8.960;2023-06-24T23:11:39;4.78;;;3.00;;
57535;SDS011;43361;49.790;8.960;2023-06-24T23:21:40;3.10;;;2.60;;
57535;SDS011;43361;49.790;8.960;2023-06-24T23:31:42;3.50;;;2.80;;
57535;SDS011;43361;49.790;8.960;2023-06-24T23:41:46;3.25;;;2.70;;
57535;SDS011;43361;49.790;8.960;2023-06-24T23:51:48;4.07;;;2.50;;
